createdAt,value
2018-09-22T00:01:46.236Z,12.50
2018-09-22T00:04:14.976Z,12.50
2018-09-22T00:06:43.313Z,12.50
2018-09-22T00:09:12.312Z,12.40
2018-09-22T00:11:40.711Z,12.40
2018-09-22T00:14:09.200Z,12.40
2018-09-22T00:16:37.447Z,12.30
2018-09-22T00:19:05.632Z,12.20
2018-09-22T00:21:33.859Z,12.20
2018-09-22T00:24:02.064Z,12.20
2018-09-22T00:26:30.317Z,12.20
2018-09-22T00:28:58.538Z,12.20
2018-09-22T00:31:26.746Z,12.20
2018-09-22T00:33:54.947Z,12.20
2018-09-22T00:36:23.255Z,12.10
2018-09-22T00:38:51.471Z,12.10
2018-09-22T00:41:19.673Z,12.00
2018-09-22T00:43:47.880Z,11.90
2018-09-22T00:46:16.092Z,11.90
2018-09-22T00:48:44.687Z,11.80
2018-09-22T00:51:13.001Z,11.70
2018-09-22T00:53:41.355Z,11.80
2018-09-22T00:56:09.546Z,11.70
2018-09-22T00:58:37.756Z,11.70
2018-09-22T01:01:05.963Z,11.70
2018-09-22T01:03:34.157Z,11.70
2018-09-22T01:06:02.480Z,11.70
2018-09-22T01:08:30.832Z,11.70
2018-09-22T01:10:59.032Z,11.70
2018-09-22T01:13:27.256Z,11.70
2018-09-22T01:15:55.608Z,11.70
2018-09-22T01:18:23.780Z,11.80
2018-09-22T01:20:51.988Z,11.80
2018-09-22T01:23:20.196Z,11.80
2018-09-22T01:25:48.385Z,11.80
2018-09-22T01:28:16.604Z,11.90
2018-09-22T01:30:44.896Z,11.90
2018-09-22T01:33:13.100Z,11.90
2018-09-22T01:35:41.484Z,11.90
2018-09-22T01:38:09.732Z,11.90
2018-09-22T01:40:37.916Z,11.90
2018-09-22T01:43:06.360Z,11.90
2018-09-22T01:45:34.575Z,11.90
2018-09-22T01:48:02.864Z,11.90
2018-09-22T01:50:31.067Z,11.80
2018-09-22T01:52:59.287Z,11.80
2018-09-22T01:55:27.515Z,11.80
2018-09-22T01:57:55.712Z,11.80
2018-09-22T02:00:24.139Z,11.70
2018-09-22T02:02:52.332Z,11.70
2018-09-22T02:05:20.547Z,11.70
2018-09-22T02:07:48.766Z,11.60
2018-09-22T02:10:16.947Z,11.50
2018-09-22T02:12:45.148Z,11.50
2018-09-22T02:15:13.578Z,11.50
2018-09-22T02:17:41.772Z,11.50
2018-09-22T02:20:09.975Z,11.50
2018-09-22T02:22:38.179Z,11.50
2018-09-22T02:25:06.716Z,11.50
2018-09-22T02:27:34.905Z,11.50
2018-09-22T02:30:03.194Z,11.50
2018-09-22T02:32:31.608Z,11.50
2018-09-22T02:34:59.811Z,11.50
2018-09-22T02:37:28.033Z,11.40
2018-09-22T02:39:56.275Z,11.40
2018-09-22T02:42:24.492Z,11.30
2018-09-22T02:44:52.680Z,11.30
2018-09-22T02:47:21.019Z,11.20
2018-09-22T02:49:49.215Z,11.20
2018-09-22T02:52:17.468Z,11.10
2018-09-22T02:54:45.663Z,11.10
2018-09-22T02:57:13.852Z,11.00
2018-09-22T02:59:42.080Z,11.00
2018-09-22T03:02:10.573Z,11.00
2018-09-22T03:04:38.768Z,11.00
2018-09-22T03:07:06.964Z,11.00
2018-09-22T03:09:35.185Z,11.00
2018-09-22T03:12:03.478Z,11.00
2018-09-22T03:14:31.969Z,11.00
2018-09-22T03:17:00.268Z,10.90
2018-09-22T03:19:28.501Z,11.00
2018-09-22T03:21:56.698Z,11.00
2018-09-22T03:24:24.881Z,11.00
2018-09-22T03:26:53.076Z,11.00
2018-09-22T03:29:21.297Z,11.00
2018-09-22T03:31:49.512Z,11.00
2018-09-22T03:34:17.719Z,11.00
2018-09-22T03:36:45.921Z,11.00
2018-09-22T03:39:14.132Z,10.90
2018-09-22T03:41:42.377Z,10.80
2018-09-22T03:44:11.113Z,10.80
2018-09-22T03:46:39.326Z,10.70
2018-09-22T03:49:07.607Z,10.70
2018-09-22T03:51:35.804Z,10.60
2018-09-22T03:54:04.023Z,10.50
2018-09-22T03:56:32.515Z,10.50
2018-09-22T03:59:00.716Z,10.50
2018-09-22T04:01:28.927Z,10.40
2018-09-22T04:03:57.111Z,10.40
2018-09-22T04:06:25.319Z,10.40
2018-09-22T04:08:53.502Z,10.40
2018-09-22T04:11:21.762Z,10.50
2018-09-22T04:13:50.107Z,10.50
2018-09-22T04:16:18.292Z,10.50
2018-09-22T04:18:46.752Z,10.50
2018-09-22T04:21:14.988Z,10.60
2018-09-22T04:23:43.195Z,10.60
2018-09-22T04:26:11.436Z,10.60
2018-09-22T04:28:39.620Z,10.60
2018-09-22T04:31:07.811Z,10.60
2018-09-22T04:33:36.021Z,10.60
2018-09-22T04:36:04.314Z,10.60
2018-09-22T04:38:32.519Z,10.60
2018-09-22T04:41:00.872Z,10.50
2018-09-22T04:43:29.076Z,10.50
2018-09-22T04:45:57.281Z,10.40
2018-09-22T04:48:25.498Z,10.40
2018-09-22T04:50:53.692Z,10.40
2018-09-22T04:53:21.876Z,10.40
2018-09-22T04:55:50.164Z,10.40
2018-09-22T04:58:18.384Z,10.30
2018-09-22T05:00:46.588Z,10.30
2018-09-22T05:03:14.803Z,10.40
2018-09-22T05:05:43.020Z,10.40
2018-09-22T05:08:11.222Z,10.40
2018-09-22T05:10:39.428Z,10.40
2018-09-22T05:13:07.627Z,10.50
2018-09-22T05:15:35.944Z,10.40
2018-09-22T05:18:04.289Z,10.40
2018-09-22T05:20:32.476Z,10.40
2018-09-22T05:23:00.664Z,10.40
2018-09-22T05:25:29.068Z,10.40
2018-09-22T05:27:57.272Z,10.50
2018-09-22T05:30:25.464Z,10.40
2018-09-22T05:32:53.717Z,10.40
2018-09-22T05:35:21.941Z,10.40
2018-09-22T05:37:50.104Z,10.50
2018-09-22T05:40:18.418Z,10.50
2018-09-22T05:42:53.332Z,10.60
2018-09-22T05:45:21.524Z,10.60
2018-09-22T05:47:49.739Z,10.60
2018-09-22T05:50:17.931Z,10.70
2018-09-22T05:52:46.309Z,10.70
2018-09-22T05:55:14.961Z,10.70
2018-09-22T05:57:43.172Z,10.80
2018-09-22T06:00:11.508Z,10.80
2018-09-22T06:02:40.583Z,10.90
2018-09-22T06:05:08.816Z,10.90
2018-09-22T06:07:37.206Z,11.00
2018-09-22T06:10:05.452Z,11.10
2018-09-22T06:12:33.936Z,11.20
2018-09-22T06:15:02.136Z,11.30
2018-09-22T06:17:30.348Z,11.30
2018-09-22T06:19:58.764Z,11.40
2018-09-22T06:22:27.211Z,11.50
2018-09-22T06:24:55.412Z,11.60
2018-09-22T06:27:23.625Z,11.70
2018-09-22T06:29:51.824Z,11.70
2018-09-22T06:32:20.036Z,11.80
2018-09-22T06:34:48.220Z,11.90
2018-09-22T06:37:16.474Z,12.00
2018-09-22T06:39:44.695Z,12.00
2018-09-22T06:42:12.969Z,12.10
2018-09-22T06:44:41.183Z,12.10
2018-09-22T06:47:09.384Z,12.10
2018-09-22T06:49:37.691Z,12.20
2018-09-22T06:52:05.964Z,12.20
2018-09-22T06:54:34.152Z,12.30
2018-09-22T06:57:02.500Z,12.30
2018-09-22T06:59:30.716Z,12.40
2018-09-22T07:01:58.912Z,12.40
2018-09-22T07:04:27.261Z,12.50
2018-09-22T07:06:55.477Z,12.70
2018-09-22T07:09:23.701Z,12.80
2018-09-22T07:11:51.897Z,13.00
2018-09-22T07:14:20.108Z,13.20
2018-09-22T07:16:48.305Z,13.40
2018-09-22T07:19:16.724Z,13.60
2018-09-22T07:21:50.428Z,13.80
2018-09-22T07:24:18.631Z,13.90
2018-09-22T07:26:46.859Z,14.10
2018-09-22T07:29:15.758Z,14.20
2018-09-22T07:31:43.968Z,14.30
2018-09-22T07:34:12.222Z,14.40
2018-09-22T07:36:40.522Z,14.50
2018-09-22T07:39:09.904Z,14.60
2018-09-22T07:41:38.112Z,14.80
2018-09-22T07:44:06.632Z,14.90
2018-09-22T07:46:34.883Z,15.00
2018-09-22T07:49:03.359Z,15.10
2018-09-22T07:51:31.723Z,15.20
2018-09-22T07:53:59.928Z,15.30
2018-09-22T07:56:28.148Z,15.40
2018-09-22T07:58:56.459Z,15.40
2018-09-22T08:01:25.208Z,15.50
2018-09-22T08:03:53.441Z,15.50
2018-09-22T08:06:22.097Z,15.60
2018-09-22T08:08:50.339Z,15.60
2018-09-22T08:11:18.551Z,15.70
2018-09-22T08:13:46.744Z,15.70
2018-09-22T08:16:15.097Z,15.70
2018-09-22T08:18:43.308Z,15.70
2018-09-22T08:21:11.522Z,15.70
2018-09-22T08:23:39.760Z,15.70
2018-09-22T08:26:08.432Z,15.80
2018-09-22T08:28:36.738Z,15.90
2018-09-22T08:31:05.088Z,15.90
2018-09-22T08:33:33.276Z,16.00
2018-09-22T08:36:01.593Z,16.00
2018-09-22T08:38:29.816Z,16.00
2018-09-22T08:40:58.364Z,16.10
2018-09-22T08:43:26.609Z,16.10
2018-09-22T08:45:54.812Z,16.20
2018-09-22T08:48:23.071Z,16.30
2018-09-22T08:50:51.283Z,16.40
2018-09-22T08:53:19.472Z,16.50
2018-09-22T08:55:47.764Z,16.60
2018-09-22T08:58:15.965Z,16.70
2018-09-22T09:00:44.176Z,16.70
2018-09-22T09:03:12.544Z,16.70
2018-09-22T09:05:40.970Z,16.80
2018-09-22T09:08:09.430Z,16.80
2018-09-22T09:10:37.643Z,16.90
2018-09-22T09:13:05.870Z,17.00
2018-09-22T09:15:34.092Z,17.00
2018-09-22T09:18:02.309Z,17.00
2018-09-22T09:20:30.517Z,17.10
2018-09-22T09:22:58.844Z,17.20
2018-09-22T09:25:27.036Z,17.30
2018-09-22T09:27:55.252Z,17.40
2018-09-22T09:30:23.543Z,17.40
2018-09-22T09:32:51.961Z,17.50
2018-09-22T09:35:20.164Z,17.60
2018-09-22T09:37:48.368Z,17.60
2018-09-22T09:40:16.828Z,17.70
2018-09-22T09:42:45.027Z,17.70
2018-09-22T09:45:13.235Z,17.60
2018-09-22T09:47:41.519Z,17.70
2018-09-22T09:50:09.736Z,17.80
2018-09-22T09:52:37.957Z,17.90
2018-09-22T09:55:06.270Z,17.90
2018-09-22T09:57:34.468Z,18.10
2018-09-22T10:00:02.677Z,18.20
2018-09-22T10:02:30.864Z,18.30
2018-09-22T10:04:59.235Z,18.30
2018-09-22T10:07:27.443Z,18.40
2018-09-22T10:09:55.628Z,18.40
2018-09-22T10:12:24.071Z,18.50
2018-09-22T10:14:52.344Z,18.50
2018-09-22T10:17:20.523Z,18.60
2018-09-22T10:19:48.740Z,18.70
2018-09-22T10:22:16.957Z,18.70
2018-09-22T10:24:45.196Z,18.70
2018-09-22T10:27:13.406Z,18.80
2018-09-22T10:29:41.655Z,18.80
2018-09-22T10:32:09.860Z,18.80
2018-09-22T10:34:38.073Z,18.80
2018-09-22T10:37:06.411Z,18.80
2018-09-22T10:39:34.641Z,18.90
2018-09-22T10:42:02.963Z,18.90
2018-09-22T10:44:31.227Z,19.10
2018-09-22T10:46:59.459Z,19.10
2018-09-22T10:49:27.903Z,19.20
2018-09-22T10:51:56.178Z,19.20
2018-09-22T10:54:24.401Z,19.20
2018-09-22T10:56:52.660Z,19.10
2018-09-22T10:59:20.860Z,19.10
2018-09-22T11:01:49.255Z,19.10
2018-09-22T11:04:17.427Z,19.10
2018-09-22T11:06:45.732Z,19.30
2018-09-22T11:09:13.934Z,19.50
2018-09-22T11:11:42.154Z,19.60
2018-09-22T11:14:10.368Z,19.50
2018-09-22T11:16:38.611Z,19.50
2018-09-22T11:19:06.880Z,19.50
2018-09-22T11:21:35.283Z,19.60
2018-09-22T11:24:03.610Z,19.60
2018-09-22T11:26:32.021Z,19.60
2018-09-22T11:29:00.499Z,19.60
2018-09-22T11:31:28.909Z,19.60
2018-09-22T11:33:57.246Z,19.60
2018-09-22T11:36:25.480Z,19.60
2018-09-22T11:38:53.741Z,19.60
2018-09-22T11:41:21.996Z,19.70
2018-09-22T11:43:50.184Z,19.80
2018-09-22T11:46:18.416Z,19.90
2018-09-22T11:48:46.613Z,19.90
2018-09-22T11:51:14.875Z,19.90
2018-09-22T11:53:43.414Z,19.90
2018-09-22T11:56:11.623Z,19.90
2018-09-22T11:58:39.858Z,19.90
2018-09-22T12:01:08.367Z,20.00
2018-09-22T12:03:36.584Z,20.00
2018-09-22T12:06:04.920Z,19.90
2018-09-22T12:08:33.032Z,19.90
2018-09-22T12:11:01.363Z,20.00
2018-09-22T12:13:29.659Z,20.00
2018-09-22T12:15:57.881Z,20.00
2018-09-22T12:18:26.295Z,20.00
2018-09-22T12:20:54.510Z,20.00
2018-09-22T12:23:22.767Z,20.00
2018-09-22T12:25:50.991Z,19.90
2018-09-22T12:28:19.240Z,19.80
2018-09-22T12:30:47.736Z,19.70
2018-09-22T12:33:15.956Z,19.60
2018-09-22T12:35:44.233Z,19.50
2018-09-22T12:38:12.711Z,19.40
2018-09-22T12:40:41.141Z,19.30
2018-09-22T12:43:09.342Z,19.20
2018-09-22T12:45:37.552Z,19.10
2018-09-22T12:48:06.001Z,19.10
2018-09-22T12:50:34.217Z,18.90
2018-09-22T12:53:02.588Z,18.80
2018-09-22T12:55:30.800Z,18.80
2018-09-22T12:57:59.021Z,18.70
2018-09-22T13:00:27.244Z,18.70
2018-09-22T13:02:55.476Z,18.70
2018-09-22T13:05:23.709Z,18.60
2018-09-22T13:07:51.936Z,18.50
2018-09-22T13:10:20.144Z,18.50
2018-09-22T13:12:48.349Z,18.50
2018-09-22T13:15:16.552Z,18.50
2018-09-22T13:17:44.794Z,18.60
2018-09-22T13:20:13.062Z,18.60
2018-09-22T13:22:41.228Z,18.70
2018-09-22T13:25:09.441Z,18.80
2018-09-22T13:27:37.628Z,18.80
2018-09-22T13:30:05.973Z,18.90
2018-09-22T13:32:34.247Z,19.00
2018-09-22T13:35:02.460Z,19.00
2018-09-22T13:37:30.724Z,19.00
2018-09-22T13:39:58.985Z,19.00
2018-09-22T13:42:27.484Z,19.00
2018-09-22T13:44:55.672Z,19.10
2018-09-22T13:47:23.888Z,19.20
2018-09-22T13:49:52.100Z,19.30
2018-09-22T13:52:20.312Z,19.40
2018-09-22T13:54:48.517Z,19.50
2018-09-22T13:57:16.728Z,19.50
2018-09-22T13:59:44.956Z,19.50
2018-09-22T14:02:13.183Z,19.50
2018-09-22T14:04:41.496Z,19.60
2018-09-22T14:07:10.171Z,19.60
2018-09-22T14:09:38.356Z,19.70
2018-09-22T14:12:06.682Z,19.70
2018-09-22T14:14:34.944Z,19.70
2018-09-22T14:17:03.228Z,19.60
2018-09-22T14:19:31.452Z,19.60
2018-09-22T14:21:59.692Z,19.60
2018-09-22T14:24:27.947Z,19.70
2018-09-22T14:26:56.389Z,19.80
2018-09-22T14:29:25.391Z,20.00
2018-09-22T14:31:53.805Z,20.20
2018-09-22T14:34:22.367Z,20.30
2018-09-22T14:36:50.723Z,20.20
2018-09-22T14:39:18.921Z,20.10
2018-09-22T14:41:47.130Z,20.00
2018-09-22T14:44:15.364Z,19.90
2018-09-22T14:46:43.597Z,19.80
2018-09-22T14:49:11.811Z,19.80
2018-09-22T14:51:40.354Z,19.70
2018-09-22T14:54:08.556Z,19.70
2018-09-22T14:56:36.804Z,19.70
2018-09-22T14:59:25.985Z,19.70
2018-09-22T15:01:54.284Z,19.70
2018-09-22T15:04:22.468Z,19.70
2018-09-22T15:06:50.688Z,19.70
2018-09-22T15:09:18.904Z,19.70
2018-09-22T15:11:47.204Z,19.60
2018-09-22T15:14:15.427Z,19.50
2018-09-22T15:16:43.644Z,19.40
2018-09-22T15:19:12.071Z,19.30
2018-09-22T15:21:40.295Z,19.20
2018-09-22T15:24:08.497Z,19.20
2018-09-22T15:26:36.704Z,19.20
2018-09-22T15:29:05.495Z,19.20
2018-09-22T15:31:33.716Z,19.10
2018-09-22T15:34:01.908Z,19.00
2018-09-22T15:36:30.190Z,18.90
2018-09-22T15:38:58.371Z,18.70
2018-09-22T15:41:26.564Z,18.60
2018-09-22T15:43:54.773Z,18.50
2018-09-22T15:46:23.064Z,18.40
2018-09-22T15:48:51.276Z,18.30
2018-09-22T15:51:19.959Z,18.20
2018-09-22T15:53:48.173Z,18.10
2018-09-22T15:56:16.376Z,18.00
2018-09-22T15:58:44.790Z,17.90
2018-09-22T16:01:13.032Z,17.80
2018-09-22T16:03:41.245Z,17.70
2018-09-22T16:06:09.460Z,17.60
2018-09-22T16:08:37.708Z,17.60
2018-09-22T16:11:05.944Z,17.50
2018-09-22T16:13:34.224Z,17.40
2018-09-22T16:16:02.528Z,17.40
2018-09-22T16:18:30.988Z,17.30
2018-09-22T16:20:59.236Z,17.30
2018-09-22T16:23:27.544Z,17.20
2018-09-22T16:25:55.740Z,17.10
2018-09-22T16:28:24.108Z,17.10
2018-09-22T16:30:52.299Z,17.00
2018-09-22T16:33:20.517Z,17.00
2018-09-22T16:35:48.749Z,16.90
2018-09-22T16:38:16.982Z,16.80
2018-09-22T16:40:45.178Z,16.60
2018-09-22T16:43:13.696Z,16.50
2018-09-22T16:45:41.903Z,16.30
2018-09-22T16:48:10.095Z,16.30
2018-09-22T16:50:38.358Z,16.20
2018-09-22T16:53:06.576Z,16.20
2018-09-22T16:55:34.784Z,16.10
2018-09-22T16:58:03.052Z,16.10
2018-09-22T17:00:31.244Z,16.10
2018-09-22T17:02:59.597Z,16.10
2018-09-22T17:05:27.836Z,16.10
2018-09-22T17:07:56.184Z,16.10
2018-09-22T17:10:24.404Z,16.10
2018-09-22T17:12:53.069Z,16.00
2018-09-22T17:15:21.268Z,16.00
2018-09-22T17:17:49.459Z,16.00
2018-09-22T17:20:17.665Z,16.00
2018-09-22T17:22:45.884Z,16.00
2018-09-22T17:25:14.220Z,16.00
2018-09-22T17:27:42.428Z,16.00
2018-09-22T17:30:10.631Z,16.00
2018-09-22T17:32:38.840Z,16.00
2018-09-22T17:35:07.068Z,16.00
2018-09-22T17:37:35.524Z,16.00
2018-09-22T17:40:03.731Z,15.90
2018-09-22T17:42:31.929Z,15.90
2018-09-22T17:45:00.271Z,15.90
2018-09-22T17:47:28.608Z,15.90
2018-09-22T17:49:56.813Z,15.90
2018-09-22T17:52:25.036Z,15.90
2018-09-22T17:54:53.541Z,15.80
2018-09-22T17:57:21.732Z,15.80
2018-09-22T17:59:50.013Z,15.80
2018-09-22T18:02:18.229Z,15.80
2018-09-22T18:04:46.424Z,15.80
2018-09-22T18:07:14.646Z,15.70
2018-09-22T18:09:42.860Z,15.70
2018-09-22T18:12:11.083Z,15.60
2018-09-22T18:14:39.344Z,15.60
2018-09-22T18:17:07.552Z,15.50
2018-09-22T18:19:35.772Z,15.50
2018-09-22T18:22:03.972Z,15.40
2018-09-22T18:24:32.183Z,15.40
2018-09-22T18:27:00.418Z,15.30
2018-09-22T18:29:28.651Z,15.30
2018-09-22T18:31:56.989Z,15.20
2018-09-22T18:34:25.199Z,15.20
2018-09-22T18:36:53.440Z,15.20
2018-09-22T18:39:21.651Z,15.20
2018-09-22T18:41:49.867Z,15.20
2018-09-22T18:44:18.081Z,15.20
2018-09-22T18:46:46.316Z,15.20
2018-09-22T18:49:14.531Z,15.20
2018-09-22T18:51:43.071Z,15.20
2018-09-22T18:54:11.355Z,15.20
2018-09-22T18:56:39.564Z,15.20
2018-09-22T18:59:07.780Z,15.20
2018-09-22T19:01:35.992Z,15.20
2018-09-22T19:04:04.224Z,15.20
2018-09-22T19:06:32.436Z,15.10
2018-09-22T19:09:00.980Z,15.10
2018-09-22T19:11:29.192Z,15.10
2018-09-22T19:14:01.816Z,15.10
2018-09-22T19:16:42.729Z,15.00
2018-09-22T19:19:13.867Z,15.00
2018-09-22T19:21:50.352Z,15.00
2018-09-22T19:24:25.093Z,14.90
2018-09-22T19:26:58.219Z,14.80
2018-09-22T19:29:38.864Z,14.70
2018-09-22T19:32:10.210Z,14.70
2018-09-22T19:34:43.953Z,14.60
2018-09-22T19:37:17.321Z,14.50
2018-09-22T19:39:50.835Z,14.50
2018-09-22T19:43:22.120Z,14.50
2018-09-22T19:45:51.471Z,14.50
2018-09-22T19:48:24.292Z,14.40
2018-09-22T19:51:25.059Z,14.40
2018-09-22T19:53:54.308Z,14.40
2018-09-22T19:56:22.527Z,14.40
2018-09-22T19:58:50.927Z,14.40
2018-09-22T20:01:19.163Z,14.30
2018-09-22T20:03:47.398Z,14.30
2018-09-22T20:06:15.791Z,14.30
2018-09-22T20:08:44.007Z,14.30
2018-09-22T20:11:12.224Z,14.30
2018-09-22T20:13:40.449Z,14.30
2018-09-22T20:16:08.658Z,14.20
2018-09-22T20:18:36.899Z,14.20
2018-09-22T20:21:05.121Z,14.30
2018-09-22T20:23:33.332Z,14.20
2018-09-22T20:26:01.564Z,14.20
2018-09-22T20:28:29.784Z,14.20
2018-09-22T20:30:58.145Z,14.20
2018-09-22T20:33:26.360Z,14.20
2018-09-22T20:35:54.570Z,14.20
2018-09-22T20:38:22.852Z,14.20
2018-09-22T20:40:51.063Z,14.20
2018-09-22T20:43:19.299Z,14.20
2018-09-22T20:45:47.600Z,14.20
2018-09-22T20:48:15.829Z,14.20
2018-09-22T20:50:44.048Z,14.20
2018-09-22T20:53:12.268Z,14.20
2018-09-22T20:55:40.476Z,14.20
2018-09-22T20:58:08.936Z,14.20
2018-09-22T21:00:37.136Z,14.20
2018-09-22T21:03:05.353Z,14.20
2018-09-22T21:05:33.659Z,14.20
2018-09-22T21:08:01.889Z,14.20
2018-09-22T21:10:30.121Z,14.20
2018-09-22T21:12:58.444Z,14.20
2018-09-22T21:15:26.664Z,14.20
2018-09-22T21:17:54.929Z,14.20
2018-09-22T21:20:23.144Z,14.30
2018-09-22T21:22:51.401Z,14.30
2018-09-22T21:25:19.614Z,14.30
2018-09-22T21:27:47.817Z,14.30
2018-09-22T21:30:16.048Z,14.30
2018-09-22T21:32:44.282Z,14.40
2018-09-22T21:35:12.517Z,14.40
2018-09-22T21:37:40.749Z,14.30
2018-09-22T21:40:08.971Z,14.30
2018-09-22T21:42:37.209Z,14.30
2018-09-22T21:45:05.747Z,14.30
2018-09-22T21:47:34.004Z,14.20
2018-09-22T21:50:02.472Z,14.20
2018-09-22T21:52:30.692Z,14.20
2018-09-22T21:54:58.901Z,14.10
2018-09-22T21:57:27.151Z,14.10
2018-09-22T21:59:55.344Z,14.10
2018-09-22T22:02:23.635Z,14.10
2018-09-22T22:04:51.909Z,14.10
2018-09-22T22:07:20.101Z,14.00
2018-09-22T22:09:48.368Z,14.00
2018-09-22T22:12:16.568Z,14.00
2018-09-22T22:14:44.780Z,14.00
2018-09-22T22:17:13.017Z,14.00
2018-09-22T22:19:41.238Z,13.90
2018-09-22T22:22:09.490Z,13.90
2018-09-22T22:24:37.701Z,13.90
2018-09-22T22:27:05.900Z,13.90
2018-09-22T22:29:34.113Z,13.90
2018-09-22T22:32:02.336Z,13.90
2018-09-22T22:34:30.549Z,13.90
2018-09-22T22:36:58.803Z,13.90
2018-09-22T22:39:27.016Z,13.90
2018-09-22T22:41:55.204Z,13.90
2018-09-22T22:44:23.420Z,13.90
2018-09-22T22:46:51.615Z,13.90
2018-09-22T22:49:19.820Z,13.90
2018-09-22T22:51:48.059Z,13.90
2018-09-22T22:54:16.280Z,13.90
2018-09-22T22:56:44.583Z,13.80
2018-09-22T22:59:12.801Z,13.70
2018-09-22T23:01:41.008Z,13.70
2018-09-22T23:04:09.216Z,13.60
2018-09-22T23:06:37.411Z,13.60
2018-09-22T23:09:06.840Z,13.60
2018-09-22T23:11:35.024Z,13.50
2018-09-22T23:14:03.233Z,13.50
2018-09-22T23:16:31.452Z,13.60
2018-09-22T23:18:59.659Z,13.50
2018-09-22T23:21:27.877Z,13.50
2018-09-22T23:23:56.064Z,13.50
2018-09-22T23:26:24.272Z,13.50
2018-09-22T23:28:52.457Z,13.50
2018-09-22T23:31:20.668Z,13.50
2018-09-22T23:33:48.981Z,13.50
2018-09-22T23:36:17.179Z,13.50
2018-09-22T23:38:45.372Z,13.50
2018-09-22T23:41:13.591Z,13.60
2018-09-22T23:43:41.796Z,13.60
2018-09-22T23:46:09.988Z,13.60
2018-09-22T23:48:38.211Z,13.60
2018-09-22T23:51:06.607Z,13.70
2018-09-22T23:53:34.816Z,13.70
2018-09-22T23:56:03.008Z,13.70
2018-09-22T23:58:31.228Z,13.70
